sensor_id;sensor_type;location;lat;lon;timestamp;P1;durP1;ratioP1;P2;durP2;ratioP2
30173;SDS011;16985;50.814;8.530;2023-06-19T00:01:11;8.15;;;6.35;;
30173;SDS011;16985;50.814;8.530;2023-06-19T00:03:37;10.48;;;6.72;;
30173;SDS011;16985;50.814;8.530;2023-06-19T00:06:02;12.27;;;7.25;;
30173;SDS011;16985;50.814;8.530;2023-06-19T00:08:30;9.80;;;6.15;;
30173;SDS011;16985;50.814;8.530;2023-06-19T00:10:56;12.60;;;6.35;;
30173;SDS011;16985;50.814;8.530;2023-06-19T00:13:21;7.80;;;5.97;;
30173;SDS011;16985;50.814;8.530;2023-06-19T00:15:47;9.15;;;5.80;;
30173;SDS011;16985;50.814;8.530;2023-06-19T00:18:13;8.35;;;6.78;;
30173;SDS011;16985;50.814;8.530;2023-06-19T00:20:41;8.35;;;7.22;;
30173;SDS011;16985;50.814;8.530;2023-06-19T00:23:15;7.40;;;5.97;;
30173;SDS011;16985;50.814;8.530;2023-06-19T00:25:41;6.78;;;6.13;;
30173;SDS011;16985;50.814;8.530;2023-06-19T00:28:09;8.65;;;6.72;;
30173;SDS011;16985;50.814;8.530;2023-06-19T00:30:39;7.45;;;6.53;;
30173;SDS011;16985;50.814;8.530;2023-06-19T00:33:05;7.45;;;6.22;;
30173;SDS011;16985;50.814;8.530;2023-06-19T00:35:32;7.95;;;6.50;;
30173;SDS011;16985;50.814;8.530;2023-06-19T00:37:58;7.93;;;6.20;;
30173;SDS011;16985;50.814;8.530;2023-06-19T00:40:28;7.85;;;6.82;;
30173;SDS011;16985;50.814;8.530;2023-06-19T00:43:01;10.70;;;6.55;;
30173;SDS011;16985;50.814;8.530;2023-06-19T00:45:27;8.20;;;6.18;;
30173;SDS011;16985;50.814;8.530;2023-06-19T00:47:55;8.30;;;6.68;;
30173;SDS011;16985;50.814;8.530;2023-06-19T00:50:29;8.60;;;6.30;;
30173;SDS011;16985;50.814;8.530;2023-06-19T00:52:55;8.52;;;6.68;;
30173;SDS011;16985;50.814;8.530;2023-06-19T00:55:23;10.43;;;6.33;;
30173;SDS011;16985;50.814;8.530;2023-06-19T00:57:54;10.07;;;6.20;;
30173;SDS011;16985;50.814;8.530;2023-06-19T01:00:20;10.35;;;7.22;;
30173;SDS011;16985;50.814;8.530;2023-06-19T01:02:46;7.25;;;6.20;;
30173;SDS011;16985;50.814;8.530;2023-06-19T01:05:12;7.78;;;6.72;;
30173;SDS011;16985;50.814;8.530;2023-06-19T01:07:44;7.30;;;5.57;;
30173;SDS011;16985;50.814;8.530;2023-06-19T01:10:21;9.90;;;7.25;;
30173;SDS011;16985;50.814;8.530;2023-06-19T01:13:00;7.78;;;6.68;;
30173;SDS011;16985;50.814;8.530;2023-06-19T01:15:33;7.30;;;6.57;;
30173;SDS011;16985;50.814;8.530;2023-06-19T01:18:00;8.13;;;6.47;;
30173;SDS011;16985;50.814;8.530;2023-06-19T01:20:37;11.00;;;6.65;;
30173;SDS011;16985;50.814;8.530;2023-06-19T01:23:07;8.60;;;7.00;;
30173;SDS011;16985;50.814;8.530;2023-06-19T01:25:34;8.90;;;6.47;;
30173;SDS011;16985;50.814;8.530;2023-06-19T01:28:00;7.82;;;5.80;;
30173;SDS011;16985;50.814;8.530;2023-06-19T01:30:29;9.27;;;6.88;;
30173;SDS011;16985;50.814;8.530;2023-06-19T01:32:59;7.15;;;6.03;;
30173;SDS011;16985;50.814;8.530;2023-06-19T01:35:51;8.93;;;7.03;;
30173;SDS011;16985;50.814;8.530;2023-06-19T01:38:19;8.40;;;6.47;;
30173;SDS011;16985;50.814;8.530;2023-06-19T01:40:50;9.15;;;7.28;;
30173;SDS011;16985;50.814;8.530;2023-06-19T01:43:18;12.00;;;7.15;;
30173;SDS011;16985;50.814;8.530;2023-06-19T01:45:45;7.72;;;6.90;;
30173;SDS011;16985;50.814;8.530;2023-06-19T01:48:11;9.20;;;6.90;;
30173;SDS011;16985;50.814;8.530;2023-06-19T01:50:38;7.53;;;5.97;;
30173;SDS011;16985;50.814;8.530;2023-06-19T01:53:06;9.05;;;6.50;;
30173;SDS011;16985;50.814;8.530;2023-06-19T01:55:32;8.45;;;6.85;;
30173;SDS011;16985;50.814;8.530;2023-06-19T01:57:58;8.30;;;7.00;;
30173;SDS011;16985;50.814;8.530;2023-06-19T02:00:23;8.38;;;6.82;;
30173;SDS011;16985;50.814;8.530;2023-06-19T02:02:49;9.32;;;6.68;;
30173;SDS011;16985;50.814;8.530;2023-06-19T02:05:16;7.95;;;6.78;;
30173;SDS011;16985;50.814;8.530;2023-06-19T02:07:42;10.23;;;6.30;;
30173;SDS011;16985;50.814;8.530;2023-06-19T02:10:08;9.52;;;6.78;;
30173;SDS011;16985;50.814;8.530;2023-06-19T02:12:34;7.13;;;6.22;;
30173;SDS011;16985;50.814;8.530;2023-06-19T02:15:00;7.97;;;6.22;;
30173;SDS011;16985;50.814;8.530;2023-06-19T02:17:26;7.55;;;6.47;;
30173;SDS011;16985;50.814;8.530;2023-06-19T02:19:52;9.85;;;6.20;;
30173;SDS011;16985;50.814;8.530;2023-06-19T02:22:18;9.10;;;6.90;;
30173;SDS011;16985;50.814;8.530;2023-06-19T02:24:45;8.35;;;6.80;;
30173;SDS011;16985;50.814;8.530;2023-06-19T02:27:12;8.32;;;6.97;;
30173;SDS011;16985;50.814;8.530;2023-06-19T02:29:37;10.95;;;7.03;;
30173;SDS011;16985;50.814;8.530;2023-06-19T02:32:03;8.98;;;6.50;;
30173;SDS011;16985;50.814;8.530;2023-06-19T02:34:30;7.05;;;6.32;;
30173;SDS011;16985;50.814;8.530;2023-06-19T02:36:56;8.95;;;6.28;;
30173;SDS011;16985;50.814;8.530;2023-06-19T02:39:22;8.73;;;6.78;;
30173;SDS011;16985;50.814;8.530;2023-06-19T02:41:48;8.77;;;6.60;;
30173;SDS011;16985;50.814;8.530;2023-06-19T02:44:14;7.28;;;6.57;;
30173;SDS011;16985;50.814;8.530;2023-06-19T02:49:16;7.55;;;6.75;;
30173;SDS011;16985;50.814;8.530;2023-06-19T02:51:42;11.20;;;7.50;;
30173;SDS011;16985;50.814;8.530;2023-06-19T02:54:08;8.13;;;6.90;;
30173;SDS011;16985;50.814;8.530;2023-06-19T02:56:34;10.25;;;6.78;;
30173;SDS011;16985;50.814;8.530;2023-06-19T02:59:00;9.10;;;7.43;;
30173;SDS011;16985;50.814;8.530;2023-06-19T03:01:28;9.00;;;7.30;;
30173;SDS011;16985;50.814;8.530;2023-06-19T03:03:54;8.35;;;6.70;;
30173;SDS011;16985;50.814;8.530;2023-06-19T03:06:19;8.55;;;7.03;;
30173;SDS011;16985;50.814;8.530;2023-06-19T03:08:45;10.98;;;7.07;;
30173;SDS011;16985;50.814;8.530;2023-06-19T03:11:12;8.00;;;6.80;;
30173;SDS011;16985;50.814;8.530;2023-06-19T03:13:46;7.97;;;6.53;;
30173;SDS011;16985;50.814;8.530;2023-06-19T03:16:18;9.05;;;7.18;;
30173;SDS011;16985;50.814;8.530;2023-06-19T03:18:46;8.98;;;6.70;;
30173;SDS011;16985;50.814;8.530;2023-06-19T03:21:14;7.85;;;7.03;;
30173;SDS011;16985;50.814;8.530;2023-06-19T03:26:12;8.15;;;6.85;;
30173;SDS011;16985;50.814;8.530;2023-06-19T03:28:40;8.80;;;6.70;;
30173;SDS011;16985;50.814;8.530;2023-06-19T03:31:07;11.38;;;7.57;;
30173;SDS011;16985;50.814;8.530;2023-06-19T03:33:33;7.90;;;7.10;;
30173;SDS011;16985;50.814;8.530;2023-06-19T03:36:00;10.07;;;7.20;;
30173;SDS011;16985;50.814;8.530;2023-06-19T03:38:46;8.32;;;6.80;;
30173;SDS011;16985;50.814;8.530;2023-06-19T03:41:15;9.63;;;6.93;;
30173;SDS011;16985;50.814;8.530;2023-06-19T03:43:41;7.90;;;6.65;;
30173;SDS011;16985;50.814;8.530;2023-06-19T03:46:07;9.45;;;7.28;;
30173;SDS011;16985;50.814;8.530;2023-06-19T03:48:33;14.38;;;6.95;;
30173;SDS011;16985;50.814;8.530;2023-06-19T03:51:00;10.40;;;7.80;;
30173;SDS011;16985;50.814;8.530;2023-06-19T03:53:26;9.00;;;6.93;;
30173;SDS011;16985;50.814;8.530;2023-06-19T03:55:53;11.18;;;7.05;;
30173;SDS011;16985;50.814;8.530;2023-06-19T03:58:33;11.05;;;7.28;;
30173;SDS011;16985;50.814;8.530;2023-06-19T04:00:59;10.27;;;7.18;;
30173;SDS011;16985;50.814;8.530;2023-06-19T04:03:25;8.73;;;6.93;;
30173;SDS011;16985;50.814;8.530;2023-06-19T04:05:51;8.73;;;7.03;;
30173;SDS011;16985;50.814;8.530;2023-06-19T04:08:17;8.68;;;6.85;;
30173;SDS011;16985;50.814;8.530;2023-06-19T04:10:46;10.65;;;7.82;;
30173;SDS011;16985;50.814;8.530;2023-06-19T04:13:12;13.20;;;8.90;;
30173;SDS011;16985;50.814;8.530;2023-06-19T04:15:38;24.33;;;14.30;;
30173;SDS011;16985;50.814;8.530;2023-06-19T04:18:04;29.55;;;16.13;;
30173;SDS011;16985;50.814;8.530;2023-06-19T04:20:29;37.15;;;18.65;;
30173;SDS011;16985;50.814;8.530;2023-06-19T04:23:11;35.65;;;19.20;;
30173;SDS011;16985;50.814;8.530;2023-06-19T04:25:38;34.70;;;19.60;;
30173;SDS011;16985;50.814;8.530;2023-06-19T04:28:04;34.10;;;19.75;;
30173;SDS011;16985;50.814;8.530;2023-06-19T04:30:30;37.00;;;19.85;;
30173;SDS011;16985;50.814;8.530;2023-06-19T04:32:59;30.52;;;18.60;;
30173;SDS011;16985;50.814;8.530;2023-06-19T04:35:24;32.05;;;18.00;;
30173;SDS011;16985;50.814;8.530;2023-06-19T04:37:50;29.88;;;16.30;;
30173;SDS011;16985;50.814;8.530;2023-06-19T04:40:16;28.95;;;15.93;;
30173;SDS011;16985;50.814;8.530;2023-06-19T04:42:42;25.25;;;15.40;;
30173;SDS011;16985;50.814;8.530;2023-06-19T04:45:08;23.58;;;14.38;;
30173;SDS011;16985;50.814;8.530;2023-06-19T04:47:34;21.02;;;12.90;;
30173;SDS011;16985;50.814;8.530;2023-06-19T04:50:00;20.27;;;11.73;;
30173;SDS011;16985;50.814;8.530;2023-06-19T04:52:26;17.48;;;10.38;;
30173;SDS011;16985;50.814;8.530;2023-06-19T04:54:52;10.07;;;7.55;;
30173;SDS011;16985;50.814;8.530;2023-06-19T04:57:18;11.95;;;7.90;;
30173;SDS011;16985;50.814;8.530;2023-06-19T04:59:43;8.13;;;5.80;;
30173;SDS011;16985;50.814;8.530;2023-06-19T05:02:12;8.27;;;6.03;;
30173;SDS011;16985;50.814;8.530;2023-06-19T05:04:38;7.25;;;5.53;;
30173;SDS011;16985;50.814;8.530;2023-06-19T05:07:07;7.18;;;4.82;;
30173;SDS011;16985;50.814;8.530;2023-06-19T05:09:35;8.65;;;5.43;;
30173;SDS011;16985;50.814;8.530;2023-06-19T05:12:17;6.95;;;4.97;;
30173;SDS011;16985;50.814;8.530;2023-06-19T05:14:42;9.80;;;5.03;;
30173;SDS011;16985;50.814;8.530;2023-06-19T05:17:08;5.22;;;4.47;;
30173;SDS011;16985;50.814;8.530;2023-06-19T05:19:34;5.05;;;4.55;;
30173;SDS011;16985;50.814;8.530;2023-06-19T05:22:00;6.63;;;4.30;;
30173;SDS011;16985;50.814;8.530;2023-06-19T05:24:26;4.88;;;4.35;;
30173;SDS011;16985;50.814;8.530;2023-06-19T05:26:51;4.93;;;4.07;;
30173;SDS011;16985;50.814;8.530;2023-06-19T05:29:17;5.75;;;4.10;;
30173;SDS011;16985;50.814;8.530;2023-06-19T05:31:43;7.38;;;4.45;;
30173;SDS011;16985;50.814;8.530;2023-06-19T05:34:09;4.80;;;3.78;;
30173;SDS011;16985;50.814;8.530;2023-06-19T05:36:34;4.53;;;3.70;;
30173;SDS011;16985;50.814;8.530;2023-06-19T05:39:00;6.90;;;3.90;;
30173;SDS011;16985;50.814;8.530;2023-06-19T05:41:26;5.28;;;3.55;;
30173;SDS011;16985;50.814;8.530;2023-06-19T05:43:52;4.38;;;3.70;;
30173;SDS011;16985;50.814;8.530;2023-06-19T05:46:18;4.88;;;3.63;;
30173;SDS011;16985;50.814;8.530;2023-06-19T05:48:44;4.55;;;4.10;;
30173;SDS011;16985;50.814;8.530;2023-06-19T05:51:09;6.28;;;4.32;;
30173;SDS011;16985;50.814;8.530;2023-06-19T05:53:35;3.58;;;3.25;;
30173;SDS011;16985;50.814;8.530;2023-06-19T05:56:01;6.32;;;4.60;;
30173;SDS011;16985;50.814;8.530;2023-06-19T05:58:26;5.70;;;3.92;;
30173;SDS011;16985;50.814;8.530;2023-06-19T06:00:52;4.50;;;3.35;;
30173;SDS011;16985;50.814;8.530;2023-06-19T06:03:23;4.53;;;3.72;;
30173;SDS011;16985;50.814;8.530;2023-06-19T06:05:50;4.18;;;3.47;;
30173;SDS011;16985;50.814;8.530;2023-06-19T06:08:30;9.90;;;4.18;;
30173;SDS011;16985;50.814;8.530;2023-06-19T06:10:57;6.65;;;4.43;;
30173;SDS011;16985;50.814;8.530;2023-06-19T06:13:23;7.95;;;4.65;;
30173;SDS011;16985;50.814;8.530;2023-06-19T06:15:49;9.43;;;3.70;;
30173;SDS011;16985;50.814;8.530;2023-06-19T06:18:16;5.18;;;3.95;;
30173;SDS011;16985;50.814;8.530;2023-06-19T06:20:56;5.95;;;4.63;;
30173;SDS011;16985;50.814;8.530;2023-06-19T06:23:24;5.20;;;3.58;;
30173;SDS011;16985;50.814;8.530;2023-06-19T06:25:50;5.03;;;3.70;;
30173;SDS011;16985;50.814;8.530;2023-06-19T06:28:16;6.35;;;4.13;;
30173;SDS011;16985;50.814;8.530;2023-06-19T06:30:42;5.15;;;4.28;;
30173;SDS011;16985;50.814;8.530;2023-06-19T06:33:09;7.45;;;4.75;;
30173;SDS011;16985;50.814;8.530;2023-06-19T06:35:35;4.95;;;4.10;;
30173;SDS011;16985;50.814;8.530;2023-06-19T06:38:01;4.68;;;4.25;;
30173;SDS011;16985;50.814;8.530;2023-06-19T06:40:27;6.35;;;4.22;;
30173;SDS011;16985;50.814;8.530;2023-06-19T06:42:53;4.82;;;4.22;;
30173;SDS011;16985;50.814;8.530;2023-06-19T06:45:20;6.68;;;3.92;;
30173;SDS011;16985;50.814;8.530;2023-06-19T06:48:03;5.07;;;4.40;;
30173;SDS011;16985;50.814;8.530;2023-06-19T06:50:31;5.80;;;4.47;;
30173;SDS011;16985;50.814;8.530;2023-06-19T06:52:57;6.60;;;4.38;;
30173;SDS011;16985;50.814;8.530;2023-06-19T06:55:23;4.95;;;4.05;;
30173;SDS011;16985;50.814;8.530;2023-06-19T06:57:49;5.60;;;4.60;;
30173;SDS011;16985;50.814;8.530;2023-06-19T07:00:30;5.75;;;4.78;;
30173;SDS011;16985;50.814;8.530;2023-06-19T07:02:56;8.10;;;5.18;;
30173;SDS011;16985;50.814;8.530;2023-06-19T07:05:22;4.88;;;4.35;;
30173;SDS011;16985;50.814;8.530;2023-06-19T07:07:47;7.80;;;4.80;;
30173;SDS011;16985;50.814;8.530;2023-06-19T07:10:13;6.40;;;5.07;;
30173;SDS011;16985;50.814;8.530;2023-06-19T07:12:48;7.85;;;4.45;;
30173;SDS011;16985;50.814;8.530;2023-06-19T07:15:15;6.18;;;4.53;;
30173;SDS011;16985;50.814;8.530;2023-06-19T07:17:55;7.82;;;4.60;;
30173;SDS011;16985;50.814;8.530;2023-06-19T07:20:22;8.18;;;5.20;;
30173;SDS011;16985;50.814;8.530;2023-06-19T07:22:51;5.57;;;4.70;;
30173;SDS011;16985;50.814;8.530;2023-06-19T07:25:20;9.75;;;4.85;;
30173;SDS011;16985;50.814;8.530;2023-06-19T07:27:50;8.23;;;5.20;;
30173;SDS011;16985;50.814;8.530;2023-06-19T07:30:16;5.30;;;4.80;;
30173;SDS011;16985;50.814;8.530;2023-06-19T07:32:42;5.20;;;4.70;;
30173;SDS011;16985;50.814;8.530;2023-06-19T07:35:08;5.53;;;4.57;;
30173;SDS011;16985;50.814;8.530;2023-06-19T07:37:34;5.70;;;4.78;;
30173;SDS011;16985;50.814;8.530;2023-06-19T07:39:59;7.85;;;4.85;;
30173;SDS011;16985;50.814;8.530;2023-06-19T07:42:25;7.65;;;5.13;;
30173;SDS011;16985;50.814;8.530;2023-06-19T07:44:51;7.28;;;4.82;;
30173;SDS011;16985;50.814;8.530;2023-06-19T07:47:17;7.88;;;5.45;;
30173;SDS011;16985;50.814;8.530;2023-06-19T07:49:44;6.03;;;4.75;;
30173;SDS011;16985;50.814;8.530;2023-06-19T07:52:10;9.68;;;5.43;;
30173;SDS011;16985;50.814;8.530;2023-06-19T07:54:36;6.22;;;4.72;;
30173;SDS011;16985;50.814;8.530;2023-06-19T07:57:13;6.20;;;5.28;;
30173;SDS011;16985;50.814;8.530;2023-06-19T07:59:39;5.93;;;4.75;;
30173;SDS011;16985;50.814;8.530;2023-06-19T08:02:05;6.70;;;5.18;;
30173;SDS011;16985;50.814;8.530;2023-06-19T08:04:31;5.85;;;5.03;;
30173;SDS011;16985;50.814;8.530;2023-06-19T08:06:56;6.43;;;5.05;;
30173;SDS011;16985;50.814;8.530;2023-06-19T08:09:22;5.53;;;4.93;;
30173;SDS011;16985;50.814;8.530;2023-06-19T08:11:48;7.20;;;5.13;;
30173;SDS011;16985;50.814;8.530;2023-06-19T08:14:14;6.13;;;5.05;;
30173;SDS011;16985;50.814;8.530;2023-06-19T08:16:39;7.45;;;5.32;;
30173;SDS011;16985;50.814;8.530;2023-06-19T08:19:05;6.40;;;5.07;;
30173;SDS011;16985;50.814;8.530;2023-06-19T08:21:31;5.55;;;4.70;;
30173;SDS011;16985;50.814;8.530;2023-06-19T08:23:57;7.40;;;4.50;;
30173;SDS011;16985;50.814;8.530;2023-06-19T08:26:23;8.65;;;5.13;;
30173;SDS011;16985;50.814;8.530;2023-06-19T08:28:49;8.15;;;4.75;;
30173;SDS011;16985;50.814;8.530;2023-06-19T08:31:15;6.13;;;4.60;;
30173;SDS011;16985;50.814;8.530;2023-06-19T08:33:41;6.57;;;5.07;;
30173;SDS011;16985;50.814;8.530;2023-06-19T08:36:07;5.28;;;4.32;;
30173;SDS011;16985;50.814;8.530;2023-06-19T08:38:33;9.20;;;4.50;;
30173;SDS011;16985;50.814;8.530;2023-06-19T08:40:59;6.18;;;4.57;;
30173;SDS011;16985;50.814;8.530;2023-06-19T08:43:39;4.57;;;4.18;;
30173;SDS011;16985;50.814;8.530;2023-06-19T08:48:36;5.60;;;4.40;;
30173;SDS011;16985;50.814;8.530;2023-06-19T08:51:02;4.60;;;4.10;;
30173;SDS011;16985;50.814;8.530;2023-06-19T08:53:33;4.80;;;3.80;;
30173;SDS011;16985;50.814;8.530;2023-06-19T08:56:17;5.93;;;3.90;;
30173;SDS011;16985;50.814;8.530;2023-06-19T08:58:43;7.30;;;3.72;;
30173;SDS011;16985;50.814;8.530;2023-06-19T09:01:32;4.25;;;3.67;;
30173;SDS011;16985;50.814;8.530;2023-06-19T09:03:58;8.05;;;4.60;;
30173;SDS011;16985;50.814;8.530;2023-06-19T09:06:26;4.05;;;3.22;;
30173;SDS011;16985;50.814;8.530;2023-06-19T09:08:58;4.75;;;3.95;;
30173;SDS011;16985;50.814;8.530;2023-06-19T09:11:25;5.07;;;3.78;;
30173;SDS011;16985;50.814;8.530;2023-06-19T09:13:56;5.13;;;3.90;;
30173;SDS011;16985;50.814;8.530;2023-06-19T09:16:23;5.85;;;3.72;;
30173;SDS011;16985;50.814;8.530;2023-06-19T09:19:01;6.10;;;3.53;;
30173;SDS011;16985;50.814;8.530;2023-06-19T09:21:27;6.88;;;3.50;;
30173;SDS011;16985;50.814;8.530;2023-06-19T09:23:53;4.97;;;3.45;;
30173;SDS011;16985;50.814;8.530;2023-06-19T09:26:34;4.57;;;3.60;;
30173;SDS011;16985;50.814;8.530;2023-06-19T09:31:55;5.10;;;3.30;;
30173;SDS011;16985;50.814;8.530;2023-06-19T09:34:21;4.72;;;3.38;;
30173;SDS011;16985;50.814;8.530;2023-06-19T09:36:48;5.77;;;3.93;;
30173;SDS011;16985;50.814;8.530;2023-06-19T09:39:16;4.82;;;3.55;;
30173;SDS011;16985;50.814;8.530;2023-06-19T09:41:43;5.13;;;3.90;;
30173;SDS011;16985;50.814;8.530;2023-06-19T09:44:11;3.92;;;3.22;;
30173;SDS011;16985;50.814;8.530;2023-06-19T09:49:06;5.35;;;3.58;;
30173;SDS011;16985;50.814;8.530;2023-06-19T09:51:43;4.22;;;3.78;;
30173;SDS011;16985;50.814;8.530;2023-06-19T09:54:09;5.72;;;4.18;;
30173;SDS011;16985;50.814;8.530;2023-06-19T09:56:35;4.75;;;3.83;;
30173;SDS011;16985;50.814;8.530;2023-06-19T09:59:03;5.90;;;4.28;;
30173;SDS011;16985;50.814;8.530;2023-06-19T10:01:29;6.85;;;3.65;;
30173;SDS011;16985;50.814;8.530;2023-06-19T10:04:04;4.57;;;3.80;;
30173;SDS011;16985;50.814;8.530;2023-06-19T10:06:32;5.38;;;3.63;;
30173;SDS011;16985;50.814;8.530;2023-06-19T10:09:08;5.38;;;3.85;;
30173;SDS011;16985;50.814;8.530;2023-06-19T10:11:50;9.15;;;4.03;;
30173;SDS011;16985;50.814;8.530;2023-06-19T10:14:20;6.25;;;3.50;;
30173;SDS011;16985;50.814;8.530;2023-06-19T10:16:47;7.68;;;3.80;;
30173;SDS011;16985;50.814;8.530;2023-06-19T10:19:14;8.23;;;3.95;;
30173;SDS011;16985;50.814;8.530;2023-06-19T10:24:18;4.60;;;4.07;;
30173;SDS011;16985;50.814;8.530;2023-06-19T10:26:58;5.65;;;4.10;;
30173;SDS011;16985;50.814;8.530;2023-06-19T10:29:25;4.85;;;4.35;;
30173;SDS011;16985;50.814;8.530;2023-06-19T10:31:52;5.05;;;3.90;;
30173;SDS011;16985;50.814;8.530;2023-06-19T10:34:19;5.50;;;3.85;;
30173;SDS011;16985;50.814;8.530;2023-06-19T10:36:45;5.25;;;4.50;;
30173;SDS011;16985;50.814;8.530;2023-06-19T10:39:11;7.22;;;3.90;;
30173;SDS011;16985;50.814;8.530;2023-06-19T10:41:39;7.57;;;4.30;;
30173;SDS011;16985;50.814;8.530;2023-06-19T10:44:06;5.20;;;4.10;;
30173;SDS011;16985;50.814;8.530;2023-06-19T10:46:37;5.72;;;4.70;;
30173;SDS011;16985;50.814;8.530;2023-06-19T10:49:04;8.85;;;4.05;;
30173;SDS011;16985;50.814;8.530;2023-06-19T10:51:39;4.20;;;3.50;;
30173;SDS011;16985;50.814;8.530;2023-06-19T10:54:08;5.68;;;3.65;;
30173;SDS011;16985;50.814;8.530;2023-06-19T10:56:35;5.38;;;4.18;;
30173;SDS011;16985;50.814;8.530;2023-06-19T10:59:02;5.35;;;4.20;;
30173;SDS011;16985;50.814;8.530;2023-06-19T11:01:34;4.95;;;3.65;;
30173;SDS011;16985;50.814;8.530;2023-06-19T11:04:09;5.85;;;3.90;;
30173;SDS011;16985;50.814;8.530;2023-06-19T11:06:37;7.40;;;3.83;;
30173;SDS011;16985;50.814;8.530;2023-06-19T11:09:07;5.10;;;3.85;;
30173;SDS011;16985;50.814;8.530;2023-06-19T11:11:39;3.90;;;3.40;;
30173;SDS011;16985;50.814;8.530;2023-06-19T11:14:10;6.85;;;3.80;;
30173;SDS011;16985;50.814;8.530;2023-06-19T11:19:09;4.88;;;3.40;;
30173;SDS011;16985;50.814;8.530;2023-06-19T11:21:40;4.95;;;3.60;;
30173;SDS011;16985;50.814;8.530;2023-06-19T11:24:13;5.90;;;3.78;;
30173;SDS011;16985;50.814;8.530;2023-06-19T11:26:40;4.03;;;3.47;;
30173;SDS011;16985;50.814;8.530;2023-06-19T11:29:21;8.13;;;3.90;;
30173;SDS011;16985;50.814;8.530;2023-06-19T11:31:53;4.97;;;3.03;;
30173;SDS011;16985;50.814;8.530;2023-06-19T11:34:32;3.38;;;2.85;;
30173;SDS011;16985;50.814;8.530;2023-06-19T11:37:02;3.88;;;2.83;;
30173;SDS011;16985;50.814;8.530;2023-06-19T11:39:43;4.13;;;3.55;;
30173;SDS011;16985;50.814;8.530;2023-06-19T11:42:11;12.60;;;2.85;;
30173;SDS011;16985;50.814;8.530;2023-06-19T11:44:55;4.47;;;2.80;;
30173;SDS011;16985;50.814;8.530;2023-06-19T11:47:26;7.38;;;2.95;;
30173;SDS011;16985;50.814;8.530;2023-06-19T11:49:56;4.55;;;3.13;;
30173;SDS011;16985;50.814;8.530;2023-06-19T11:52:21;7.47;;;3.83;;
30173;SDS011;16985;50.814;8.530;2023-06-19T11:54:47;6.68;;;3.20;;
30173;SDS011;16985;50.814;8.530;2023-06-19T11:57:13;14.50;;;3.13;;
30173;SDS011;16985;50.814;8.530;2023-06-19T11:59:39;3.80;;;2.95;;
30173;SDS011;16985;50.814;8.530;2023-06-19T12:02:06;3.83;;;3.03;;
30173;SDS011;16985;50.814;8.530;2023-06-19T12:04:33;4.75;;;3.05;;
30173;SDS011;16985;50.814;8.530;2023-06-19T12:06:59;3.90;;;2.80;;
30173;SDS011;16985;50.814;8.530;2023-06-19T12:09:25;6.97;;;3.65;;
30173;SDS011;16985;50.814;8.530;2023-06-19T12:11:51;6.47;;;2.83;;
30173;SDS011;16985;50.814;8.530;2023-06-19T12:14:17;3.78;;;3.10;;
30173;SDS011;16985;50.814;8.530;2023-06-19T12:16:47;5.43;;;2.88;;
30173;SDS011;16985;50.814;8.530;2023-06-19T12:19:13;8.38;;;2.95;;
30173;SDS011;16985;50.814;8.530;2023-06-19T12:21:39;4.65;;;2.60;;
30173;SDS011;16985;50.814;8.530;2023-06-19T12:24:05;5.20;;;3.20;;
30173;SDS011;16985;50.814;8.530;2023-06-19T12:26:32;5.03;;;2.50;;
30173;SDS011;16985;50.814;8.530;2023-06-19T12:29:02;4.13;;;2.65;;
30173;SDS011;16985;50.814;8.530;2023-06-19T12:31:29;4.85;;;2.78;;
30173;SDS011;16985;50.814;8.530;2023-06-19T12:33:56;4.18;;;3.13;;
30173;SDS011;16985;50.814;8.530;2023-06-19T12:36:21;4.57;;;2.40;;
30173;SDS011;16985;50.814;8.530;2023-06-19T12:38:47;3.05;;;2.75;;
30173;SDS011;16985;50.814;8.530;2023-06-19T12:41:14;6.30;;;2.63;;
30173;SDS011;16985;50.814;8.530;2023-06-19T12:43:40;3.38;;;2.63;;
30173;SDS011;16985;50.814;8.530;2023-06-19T12:46:06;3.42;;;2.72;;
30173;SDS011;16985;50.814;8.530;2023-06-19T12:48:32;6.68;;;2.30;;
30173;SDS011;16985;50.814;8.530;2023-06-19T12:50:58;2.38;;;2.10;;
30173;SDS011;16985;50.814;8.530;2023-06-19T12:53:39;5.57;;;2.50;;
30173;SDS011;16985;50.814;8.530;2023-06-19T12:56:05;4.03;;;2.70;;
30173;SDS011;16985;50.814;8.530;2023-06-19T12:58:46;3.25;;;2.42;;
30173;SDS011;16985;50.814;8.530;2023-06-19T13:01:12;6.60;;;2.63;;
30173;SDS011;16985;50.814;8.530;2023-06-19T13:03:37;3.55;;;2.90;;
30173;SDS011;16985;50.814;8.530;2023-06-19T13:06:03;4.30;;;2.60;;
30173;SDS011;16985;50.814;8.530;2023-06-19T13:08:29;4.75;;;2.83;;
30173;SDS011;16985;50.814;8.530;2023-06-19T13:11:10;3.55;;;2.63;;
30173;SDS011;16985;50.814;8.530;2023-06-19T13:13:36;5.28;;;3.08;;
30173;SDS011;16985;50.814;8.530;2023-06-19T13:16:02;7.15;;;2.40;;
30173;SDS011;16985;50.814;8.530;2023-06-19T13:18:28;4.50;;;2.60;;
30173;SDS011;16985;50.814;8.530;2023-06-19T13:20:54;3.20;;;2.58;;
30173;SDS011;16985;50.814;8.530;2023-06-19T13:23:20;6.07;;;2.75;;
30173;SDS011;16985;50.814;8.530;2023-06-19T13:25:45;4.65;;;3.10;;
30173;SDS011;16985;50.814;8.530;2023-06-19T13:28:11;5.88;;;2.72;;
30173;SDS011;16985;50.814;8.530;2023-06-19T13:30:37;4.47;;;2.75;;
30173;SDS011;16985;50.814;8.530;2023-06-19T13:33:03;6.03;;;2.72;;
30173;SDS011;16985;50.814;8.530;2023-06-19T13:35:29;6.85;;;3.22;;
30173;SDS011;16985;50.814;8.530;2023-06-19T13:37:55;3.42;;;2.47;;
30173;SDS011;16985;50.814;8.530;2023-06-19T13:40:21;3.47;;;2.33;;
30173;SDS011;16985;50.814;8.530;2023-06-19T13:42:47;3.58;;;2.70;;
30173;SDS011;16985;50.814;8.530;2023-06-19T13:45:13;3.45;;;2.72;;
30173;SDS011;16985;50.814;8.530;2023-06-19T13:47:38;9.48;;;2.85;;
30173;SDS011;16985;50.814;8.530;2023-06-19T13:50:06;7.13;;;2.60;;
30173;SDS011;16985;50.814;8.530;2023-06-19T13:52:32;3.17;;;2.40;;
30173;SDS011;16985;50.814;8.530;2023-06-19T13:54:58;9.23;;;2.95;;
30173;SDS011;16985;50.814;8.530;2023-06-19T13:57:24;6.65;;;2.75;;
30173;SDS011;16985;50.814;8.530;2023-06-19T13:59:50;5.28;;;2.78;;
30173;SDS011;16985;50.814;8.530;2023-06-19T14:02:16;7.68;;;2.65;;
30173;SDS011;16985;50.814;8.530;2023-06-19T14:04:41;4.65;;;2.80;;
30173;SDS011;16985;50.814;8.530;2023-06-19T14:07:16;4.15;;;2.90;;
30173;SDS011;16985;50.814;8.530;2023-06-19T14:09:42;5.23;;;3.27;;
30173;SDS011;16985;50.814;8.530;2023-06-19T14:12:18;3.08;;;2.65;;
30173;SDS011;16985;50.814;8.530;2023-06-19T14:14:44;3.88;;;3.15;;
30173;SDS011;16985;50.814;8.530;2023-06-19T14:17:10;4.93;;;3.00;;
30173;SDS011;16985;50.814;8.530;2023-06-19T14:19:36;5.00;;;2.90;;
30173;SDS011;16985;50.814;8.530;2023-06-19T14:22:01;3.53;;;2.85;;
30173;SDS011;16985;50.814;8.530;2023-06-19T14:24:27;8.32;;;3.05;;
30173;SDS011;16985;50.814;8.530;2023-06-19T14:26:53;5.50;;;2.80;;
30173;SDS011;16985;50.814;8.530;2023-06-19T14:29:19;3.38;;;2.47;;
30173;SDS011;16985;50.814;8.530;2023-06-19T14:31:45;4.32;;;3.17;;
30173;SDS011;16985;50.814;8.530;2023-06-19T14:34:11;3.72;;;3.15;;
30173;SDS011;16985;50.814;8.530;2023-06-19T14:36:38;5.13;;;2.60;;
30173;SDS011;16985;50.814;8.530;2023-06-19T14:39:04;3.13;;;2.38;;
30173;SDS011;16985;50.814;8.530;2023-06-19T14:41:30;3.35;;;2.60;;
30173;SDS011;16985;50.814;8.530;2023-06-19T14:43:55;4.22;;;2.80;;
30173;SDS011;16985;50.814;8.530;2023-06-19T14:46:21;3.10;;;2.75;;
30173;SDS011;16985;50.814;8.530;2023-06-19T14:48:47;3.78;;;2.38;;
30173;SDS011;16985;50.814;8.530;2023-06-19T14:51:13;7.15;;;3.08;;
30173;SDS011;16985;50.814;8.530;2023-06-19T14:53:39;3.63;;;2.83;;
30173;SDS011;16985;50.814;8.530;2023-06-19T14:56:05;3.20;;;2.50;;
30173;SDS011;16985;50.814;8.530;2023-06-19T14:58:32;2.95;;;2.50;;
30173;SDS011;16985;50.814;8.530;2023-06-19T15:00:57;3.53;;;2.67;;
30173;SDS011;16985;50.814;8.530;2023-06-19T15:03:23;7.50;;;3.05;;
30173;SDS011;16985;50.814;8.530;2023-06-19T15:05:57;8.98;;;2.55;;
30173;SDS011;16985;50.814;8.530;2023-06-19T15:08:23;4.95;;;2.83;;